createdAt,value
2018-04-26T00:00:23.931Z,1004.31
2018-04-26T00:01:23.944Z,1004.36
2018-04-26T00:02:23.946Z,1004.36
2018-04-26T00:03:23.949Z,1004.29
2018-04-26T00:04:23.968Z,1004.22
2018-04-26T00:05:23.973Z,1004.23
2018-04-26T00:06:23.979Z,1004.22
2018-04-26T00:07:23.986Z,1004.22
2018-04-26T00:08:24.005Z,1004.16
2018-04-26T00:09:24.006Z,1004.14
2018-04-26T00:10:24.017Z,1004.15
2018-04-26T00:11:24.031Z,1004.20
2018-04-26T00:12:24.044Z,1004.15
2018-04-26T00:13:24.045Z,1004.14
2018-04-26T00:14:24.052Z,1004.15
2018-04-26T00:15:24.063Z,1004.10
2018-04-26T00:16:24.067Z,1004.11
2018-04-26T00:17:24.081Z,1004.06
2018-04-26T00:18:24.090Z,1004.01
2018-04-26T00:19:24.095Z,1003.99
2018-04-26T00:20:24.110Z,1004.04
2018-04-26T00:21:24.115Z,1004.06
2018-04-26T00:22:24.132Z,1004.10
2018-04-26T00:23:24.155Z,1004.08
2018-04-26T00:24:24.148Z,1004.08
2018-04-26T00:25:24.156Z,1004.14
2018-04-26T00:26:24.170Z,1004.16
2018-04-26T00:27:24.168Z,1004.22
2018-04-26T00:28:24.184Z,1004.27
2018-04-26T00:29:24.193Z,1004.21
2018-04-26T00:30:24.198Z,1004.20
2018-04-26T00:31:24.207Z,1004.23
2018-04-26T00:32:24.213Z,1004.19
2018-04-26T00:33:24.224Z,1004.24
2018-04-26T00:34:24.246Z,1004.27
2018-04-26T00:35:24.249Z,1004.29
2018-04-26T00:36:24.250Z,1004.35
2018-04-26T00:37:24.276Z,1004.33
2018-04-26T00:38:24.265Z,1004.35
2018-04-26T00:39:24.280Z,1004.38
2018-04-26T00:40:24.287Z,1004.36
2018-04-26T00:41:24.294Z,1004.32
2018-04-26T00:42:24.320Z,1004.31
2018-04-26T00:43:24.312Z,1004.24
2018-04-26T00:44:24.467Z,1004.24
2018-04-26T00:45:24.430Z,1004.27
2018-04-26T00:46:24.339Z,1004.22
2018-04-26T00:47:24.355Z,1004.23
2018-04-26T00:48:24.365Z,1004.19
2018-04-26T00:49:24.370Z,1004.19
2018-04-26T00:50:24.380Z,1004.21
2018-04-26T00:51:24.391Z,1004.25
2018-04-26T00:52:24.397Z,1004.26
2018-04-26T00:53:24.401Z,1004.28
2018-04-26T00:54:24.410Z,1004.31
2018-04-26T00:55:24.424Z,1004.35
2018-04-26T00:56:24.444Z,1004.38
2018-04-26T00:57:24.448Z,1004.37
2018-04-26T00:58:24.450Z,1004.38
2018-04-26T00:59:24.466Z,1004.38
2018-04-26T01:00:24.473Z,1004.37
2018-04-26T01:01:24.478Z,1004.42
2018-04-26T01:02:24.488Z,1004.37
2018-04-26T01:03:24.492Z,1004.34
2018-04-26T01:04:24.508Z,1004.38
2018-04-26T01:05:24.513Z,1004.31
2018-04-26T01:06:24.526Z,1004.29
2018-04-26T01:07:24.662Z,1004.35
2018-04-26T01:08:24.551Z,1004.35
2018-04-26T01:09:24.567Z,1004.34
2018-04-26T01:10:24.570Z,1004.34
2018-04-26T01:11:24.574Z,1004.34
2018-04-26T01:12:24.582Z,1004.32
2018-04-26T01:13:24.601Z,1004.39
2018-04-26T01:14:24.598Z,1004.38
2018-04-26T01:15:24.610Z,1004.39
2018-04-26T01:16:24.613Z,1004.42
2018-04-26T01:17:24.628Z,1004.47
2018-04-26T01:18:24.632Z,1004.48
2018-04-26T01:19:24.643Z,1004.46
2018-04-26T01:20:24.650Z,1004.47
2018-04-26T01:21:24.657Z,1004.50
2018-04-26T01:22:24.680Z,1004.50
2018-04-26T01:23:24.683Z,1004.52
2018-04-26T01:24:24.690Z,1004.43
2018-04-26T01:25:24.700Z,1004.48
2018-04-26T01:26:24.709Z,1004.45
2018-04-26T01:27:24.710Z,1004.50
2018-04-26T01:28:24.722Z,1004.47
2018-04-26T01:29:24.732Z,1004.47
2018-04-26T01:30:24.738Z,1004.49
2018-04-26T01:31:24.753Z,1004.53
2018-04-26T01:32:24.761Z,1004.55
2018-04-26T01:33:24.764Z,1004.55
2018-04-26T01:34:24.778Z,1004.50
2018-04-26T01:35:24.790Z,1004.51
2018-04-26T01:36:24.797Z,1004.53
2018-04-26T01:37:24.803Z,1004.52
2018-04-26T01:38:24.816Z,1004.52
2018-04-26T01:39:24.823Z,1004.55
2018-04-26T01:40:24.845Z,1004.54
2018-04-26T01:41:24.837Z,1004.56
2018-04-26T01:42:24.848Z,1004.57
2018-04-26T01:43:24.856Z,1004.62
2018-04-26T01:44:24.871Z,1004.57
2018-04-26T01:45:24.877Z,1004.58
2018-04-26T01:46:24.883Z,1004.59
2018-04-26T01:47:24.903Z,1004.62
2018-04-26T01:48:24.902Z,1004.65
2018-04-26T01:49:24.914Z,1004.66
2018-04-26T01:50:24.917Z,1004.69
2018-04-26T01:51:24.927Z,1004.68
2018-04-26T01:52:24.940Z,1004.68
2018-04-26T01:53:24.944Z,1004.68
2018-04-26T01:54:24.958Z,1004.69
2018-04-26T01:55:24.969Z,1004.65
2018-04-26T01:56:24.974Z,1004.67
2018-04-26T01:57:24.982Z,1004.63
2018-04-26T01:58:25.000Z,1004.62
2018-04-26T01:59:25.046Z,1004.63
2018-04-26T02:00:25.027Z,1004.63
2018-04-26T02:01:25.037Z,1004.63
2018-04-26T02:02:25.038Z,1004.65
2018-04-26T02:03:25.049Z,1004.63
2018-04-26T02:04:25.057Z,1004.65
2018-04-26T02:05:25.056Z,1004.69
2018-04-26T02:06:25.069Z,1004.66
2018-04-26T02:07:25.075Z,1004.65
2018-04-26T02:08:25.097Z,1004.67
2018-04-26T02:09:25.097Z,1004.69
2018-04-26T02:10:25.129Z,1004.67
2018-04-26T02:11:25.111Z,1004.73
2018-04-26T02:12:25.118Z,1004.70
2018-04-26T02:13:25.130Z,1004.65
2018-04-26T02:14:25.136Z,1004.66
2018-04-26T02:15:25.164Z,1004.63
2018-04-26T02:16:25.151Z,1004.65
2018-04-26T02:17:25.158Z,1004.67
2018-04-26T02:18:25.170Z,1004.61
2018-04-26T02:19:25.181Z,1004.64
2018-04-26T02:20:25.202Z,1004.67
2018-04-26T02:21:25.204Z,1004.64
2018-04-26T02:22:25.212Z,1004.66
2018-04-26T02:23:25.228Z,1004.64
2018-04-26T02:24:25.229Z,1004.66
2018-04-26T02:25:25.244Z,1004.63
2018-04-26T02:26:25.242Z,1004.77
2018-04-26T02:27:25.250Z,1004.71
2018-04-26T02:28:25.261Z,1004.76
2018-04-26T02:29:25.265Z,1004.73
2018-04-26T02:30:25.281Z,1004.72
2018-04-26T02:31:25.287Z,1004.73
2018-04-26T02:32:25.293Z,1004.74
2018-04-26T02:33:25.306Z,1004.78
2018-04-26T02:34:25.314Z,1004.75
2018-04-26T02:35:25.333Z,1004.77
2018-04-26T02:36:25.343Z,1004.76
2018-04-26T02:37:25.343Z,1004.80
2018-04-26T02:38:25.349Z,1004.86
2018-04-26T02:39:25.358Z,1004.86
2018-04-26T02:40:25.365Z,1004.87
2018-04-26T02:41:25.382Z,1004.89
2018-04-26T02:42:25.384Z,1004.87
2018-04-26T02:43:25.398Z,1004.89
2018-04-26T02:44:25.428Z,1004.89
2018-04-26T02:45:25.409Z,1004.82
2018-04-26T02:46:25.420Z,1004.87
2018-04-26T02:47:25.428Z,1004.86
2018-04-26T02:48:25.436Z,1004.83
2018-04-26T02:49:25.484Z,1004.85
2018-04-26T02:50:25.460Z,1004.76
2018-04-26T02:51:25.487Z,1004.75
2018-04-26T02:52:25.472Z,1004.74
2018-04-26T02:53:25.479Z,1004.82
2018-04-26T02:54:25.490Z,1004.85
2018-04-26T02:55:25.503Z,1004.92
2018-04-26T02:56:25.506Z,1004.90
2018-04-26T02:57:25.519Z,1004.91
2018-04-26T02:58:25.538Z,1004.92
2018-04-26T02:59:25.544Z,1004.91
2018-04-26T03:00:25.552Z,1004.96
2018-04-26T03:01:25.648Z,1004.96
2018-04-26T03:02:25.567Z,1004.94
2018-04-26T03:03:25.572Z,1004.97
2018-04-26T03:04:25.587Z,1004.94
2018-04-26T03:05:25.591Z,1004.90
2018-04-26T03:06:25.596Z,1004.98
2018-04-26T03:07:25.610Z,1004.93
2018-04-26T03:08:25.850Z,1005.01
2018-04-26T03:09:25.665Z,1004.99
2018-04-26T03:10:25.632Z,1004.96
2018-04-26T03:11:25.637Z,1004.94
2018-04-26T03:12:25.653Z,1004.98
2018-04-26T03:13:25.658Z,1005.01
2018-04-26T03:14:25.677Z,1005.04
2018-04-26T03:15:25.675Z,1005.08
2018-04-26T03:16:25.686Z,1005.06
2018-04-26T03:17:25.699Z,1005.06
2018-04-26T03:18:25.701Z,1005.10
2018-04-26T03:19:25.709Z,1005.09
2018-04-26T03:20:25.720Z,1005.11
2018-04-26T03:21:25.727Z,1005.09
2018-04-26T03:22:25.746Z,1005.06
2018-04-26T03:23:25.741Z,1005.13
2018-04-26T03:24:25.756Z,1005.15
2018-04-26T03:25:25.768Z,1005.10
2018-04-26T03:26:25.772Z,1005.14
2018-04-26T03:27:25.779Z,1005.20
2018-04-26T03:28:25.785Z,1005.14
2018-04-26T03:29:25.793Z,1005.18
2018-04-26T03:30:25.799Z,1005.20
2018-04-26T03:31:25.807Z,1005.19
2018-04-26T03:32:25.816Z,1005.19
2018-04-26T03:33:25.826Z,1005.13
2018-04-26T03:34:25.835Z,1005.14
2018-04-26T03:35:25.839Z,1005.16
2018-04-26T03:36:25.858Z,1005.23
2018-04-26T03:37:25.893Z,1005.16
2018-04-26T03:38:25.897Z,1005.18
2018-04-26T03:39:25.886Z,1005.25
2018-04-26T03:40:25.892Z,1005.22
2018-04-26T03:41:25.906Z,1005.28
2018-04-26T03:42:25.925Z,1005.34
2018-04-26T03:43:25.913Z,1005.33
2018-04-26T03:44:25.922Z,1005.38
2018-04-26T03:45:25.935Z,1005.42
2018-04-26T03:46:25.937Z,1005.45
2018-04-26T03:47:25.945Z,1005.40
2018-04-26T03:48:25.953Z,1005.40
2018-04-26T03:49:25.974Z,1005.39
2018-04-26T03:50:25.969Z,1005.39
2018-04-26T03:51:25.983Z,1005.44
2018-04-26T03:52:26.008Z,1005.44
2018-04-26T03:53:25.995Z,1005.47
2018-04-26T03:54:26.011Z,1005.43
2018-04-26T03:55:26.011Z,1005.43
2018-04-26T03:56:26.015Z,1005.50
2018-04-26T03:57:26.027Z,1005.47
2018-04-26T03:58:26.044Z,1005.51
2018-04-26T03:59:26.040Z,1005.51
2018-04-26T04:00:26.065Z,1005.56
2018-04-26T04:01:26.068Z,1005.54
2018-04-26T04:02:26.075Z,1005.49
2018-04-26T04:03:26.078Z,1005.51
2018-04-26T04:04:26.086Z,1005.54
2018-04-26T04:05:26.093Z,1005.56
2018-04-26T04:06:26.103Z,1005.57
2018-04-26T04:07:26.111Z,1005.54
2018-04-26T04:08:26.126Z,1005.53
2018-04-26T04:09:26.131Z,1005.52
2018-04-26T04:10:26.130Z,1005.52
2018-04-26T04:11:26.141Z,1005.55
2018-04-26T04:12:26.153Z,1005.62
2018-04-26T04:13:26.162Z,1005.55
2018-04-26T04:14:26.184Z,1005.53
2018-04-26T04:15:26.187Z,1005.62
2018-04-26T04:16:26.178Z,1005.50
2018-04-26T04:17:26.203Z,1005.52
2018-04-26T04:18:26.209Z,1005.52
2018-04-26T04:19:26.214Z,1005.55
2018-04-26T04:20:26.223Z,1005.53
2018-04-26T04:21:26.232Z,1005.61
2018-04-26T04:22:26.245Z,1005.59
2018-04-26T04:23:26.243Z,1005.51
2018-04-26T04:24:26.252Z,1005.52
2018-04-26T04:25:26.261Z,1005.60
2018-04-26T04:26:26.263Z,1005.49
2018-04-26T04:27:26.270Z,1005.61
2018-04-26T04:28:26.278Z,1005.54
2018-04-26T04:29:26.288Z,1005.56
2018-04-26T04:30:26.293Z,1005.54
2018-04-26T04:31:26.303Z,1005.60
2018-04-26T04:32:26.323Z,1005.62
2018-04-26T04:33:26.315Z,1005.54
2018-04-26T04:34:26.327Z,1005.62
2018-04-26T04:35:26.331Z,1005.67
2018-04-26T04:36:26.335Z,1005.65
2018-04-26T04:37:26.356Z,1005.68
2018-04-26T04:38:26.358Z,1005.57
2018-04-26T04:39:26.368Z,1005.53
2018-04-26T04:40:26.368Z,1005.63
2018-04-26T04:41:26.379Z,1005.60
2018-04-26T04:42:26.385Z,1005.64
2018-04-26T04:43:26.397Z,1005.65
2018-04-26T04:44:26.399Z,1005.62
2018-04-26T04:45:26.413Z,1005.60
2018-04-26T04:46:26.417Z,1005.69
2018-04-26T04:47:26.423Z,1005.68
2018-04-26T04:48:26.433Z,1005.59
2018-04-26T04:49:26.436Z,1005.61
2018-04-26T04:50:26.449Z,1005.66
2018-04-26T04:51:26.477Z,1005.69
2018-04-26T04:52:26.482Z,1005.67
2018-04-26T04:53:26.485Z,1005.73
2018-04-26T04:54:26.492Z,1005.64
2018-04-26T04:55:26.507Z,1005.72
2018-04-26T04:56:26.517Z,1005.70
2018-04-26T04:57:26.515Z,1005.74
2018-04-26T04:58:26.521Z,1005.68
2018-04-26T04:59:26.529Z,1005.70
2018-04-26T05:00:26.532Z,1005.69
2018-04-26T05:01:26.543Z,1005.70
2018-04-26T05:02:26.544Z,1005.69
2018-04-26T05:03:26.556Z,1005.66
2018-04-26T05:04:26.561Z,1005.68
2018-04-26T05:05:26.567Z,1005.70
2018-04-26T05:06:26.613Z,1005.75
2018-04-26T05:07:26.654Z,1005.79
2018-04-26T05:08:26.588Z,1005.79
2018-04-26T05:09:26.601Z,1005.86
2018-04-26T05:10:26.627Z,1005.88
2018-04-26T05:11:26.615Z,1005.89
2018-04-26T05:12:26.620Z,1005.85
2018-04-26T05:13:26.635Z,1005.84
2018-04-26T05:14:26.639Z,1005.85
2018-04-26T05:15:26.643Z,1005.90
2018-04-26T05:16:26.648Z,1005.93
2018-04-26T05:17:26.655Z,1005.94
2018-04-26T05:18:26.691Z,1005.94
2018-04-26T05:19:26.676Z,1005.99
2018-04-26T05:20:26.676Z,1006.03
2018-04-26T05:21:26.696Z,1006.06
2018-04-26T05:22:26.703Z,1006.09
2018-04-26T05:23:26.709Z,1006.07
2018-04-26T05:24:26.725Z,1006.14
2018-04-26T05:25:26.722Z,1006.16
2018-04-26T05:26:26.727Z,1006.11
2018-04-26T05:27:26.742Z,1006.20
2018-04-26T05:28:26.739Z,1006.22
2018-04-26T05:29:26.755Z,1006.39
2018-04-26T05:30:26.761Z,1006.24
2018-04-26T05:31:26.766Z,1006.25
2018-04-26T05:32:26.771Z,1006.29
2018-04-26T05:33:26.782Z,1006.31
2018-04-26T05:34:26.787Z,1006.28
2018-04-26T05:35:26.813Z,1006.28
2018-04-26T05:36:26.805Z,1006.34
2018-04-26T05:37:26.809Z,1006.33
2018-04-26T05:38:26.838Z,1006.34
2018-04-26T05:39:26.833Z,1006.44
2018-04-26T05:40:26.833Z,1006.38
2018-04-26T05:41:26.876Z,1006.41
2018-04-26T05:42:26.848Z,1006.40
2018-04-26T05:43:26.869Z,1006.37
2018-04-26T05:44:26.876Z,1006.44
2018-04-26T05:45:26.885Z,1006.48
2018-04-26T05:46:26.894Z,1006.47
2018-04-26T05:47:26.927Z,1006.59
2018-04-26T05:48:26.912Z,1006.50
2018-04-26T05:49:26.931Z,1006.52
2018-04-26T05:50:26.935Z,1006.53
2018-04-26T05:51:26.938Z,1006.53
2018-04-26T05:52:26.931Z,1006.58
2018-04-26T05:53:26.936Z,1006.68
2018-04-26T05:54:26.940Z,1006.53
2018-04-26T05:55:26.951Z,1006.65
2018-04-26T05:56:26.957Z,1006.60
2018-04-26T05:57:26.969Z,1006.64
2018-04-26T05:58:26.980Z,1006.65
2018-04-26T05:59:26.985Z,1006.67
2018-04-26T06:00:26.994Z,1006.60
2018-04-26T06:01:27.004Z,1006.58
2018-04-26T06:02:27.017Z,1006.61
2018-04-26T06:03:27.083Z,1006.67
2018-04-26T06:04:27.064Z,1006.63
2018-04-26T06:05:27.034Z,1006.69
2018-04-26T06:06:27.038Z,1006.74
2018-04-26T06:07:27.045Z,1006.80
2018-04-26T06:08:27.056Z,1006.80
2018-04-26T06:09:27.063Z,1006.79
2018-04-26T06:10:27.075Z,1006.84
2018-04-26T06:11:27.075Z,1006.87
2018-04-26T06:12:27.082Z,1006.82
2018-04-26T06:13:27.088Z,1006.78
2018-04-26T06:14:27.097Z,1006.78
2018-04-26T06:15:27.126Z,1006.89
2018-04-26T06:16:27.117Z,1006.86
2018-04-26T06:17:27.123Z,1006.87
2018-04-26T06:18:27.132Z,1006.85
2018-04-26T06:19:27.194Z,1006.95
2018-04-26T06:20:27.146Z,1006.88
2018-04-26T06:21:27.157Z,1006.91
2018-04-26T06:22:27.159Z,1006.89
2018-04-26T06:23:27.165Z,1006.89
2018-04-26T06:24:27.180Z,1006.82
2018-04-26T06:25:27.185Z,1006.93
2018-04-26T06:26:27.196Z,1007.00
2018-04-26T06:27:27.199Z,1006.93
2018-04-26T06:28:27.228Z,1006.91
2018-04-26T06:29:27.213Z,1006.88
2018-04-26T06:30:27.224Z,1006.91
2018-04-26T06:31:27.234Z,1006.96
2018-04-26T06:32:27.236Z,1006.99
2018-04-26T06:33:27.246Z,1006.98
2018-04-26T06:34:27.269Z,1006.99
2018-04-26T06:35:27.260Z,1007.08
2018-04-26T06:36:27.292Z,1007.02
2018-04-26T06:37:27.278Z,1007.13
2018-04-26T06:38:27.297Z,1007.07
2018-04-26T06:39:27.289Z,1007.14
2018-04-26T06:40:27.300Z,1007.11
2018-04-26T06:41:27.326Z,1007.26
2018-04-26T06:42:27.404Z,1007.23
2018-04-26T06:43:27.339Z,1007.20
2018-04-26T06:44:27.341Z,1007.22
2018-04-26T06:45:27.394Z,1007.26
2018-04-26T06:46:27.368Z,1007.23
2018-04-26T06:47:27.369Z,1007.27
2018-04-26T06:48:27.376Z,1007.27
2018-04-26T06:49:27.381Z,1007.28
2018-04-26T06:50:27.393Z,1007.39
2018-04-26T06:51:27.405Z,1007.28
2018-04-26T06:52:27.402Z,1007.41
2018-04-26T06:53:27.437Z,1007.32
2018-04-26T06:54:27.412Z,1007.32
2018-04-26T06:55:27.418Z,1007.26
2018-04-26T06:56:27.434Z,1007.27
2018-04-26T06:57:27.435Z,1007.27
2018-04-26T06:58:27.449Z,1007.31
2018-04-26T06:59:27.449Z,1007.28
2018-04-26T07:00:27.544Z,1007.29
2018-04-26T07:01:27.471Z,1007.22
2018-04-26T07:02:27.493Z,1007.27
2018-04-26T07:03:27.497Z,1007.24
2018-04-26T07:04:27.503Z,1007.28
2018-04-26T07:05:27.509Z,1007.26
2018-04-26T07:06:27.519Z,1007.20
2018-04-26T07:07:27.515Z,1007.21
2018-04-26T07:08:27.529Z,1007.25
2018-04-26T07:09:27.537Z,1007.28
2018-04-26T07:10:27.544Z,1007.23
2018-04-26T07:11:27.551Z,1007.29
2018-04-26T07:12:27.554Z,1007.28
2018-04-26T07:13:27.561Z,1007.32
2018-04-26T07:14:27.577Z,1007.30
2018-04-26T07:15:27.576Z,1007.25
2018-04-26T07:16:27.595Z,1007.31
2018-04-26T07:17:27.595Z,1007.25
2018-04-26T07:18:27.600Z,1007.20
2018-04-26T07:19:27.624Z,1007.30
2018-04-26T07:20:27.721Z,1007.23
2018-04-26T07:21:27.630Z,1007.27
2018-04-26T07:22:27.645Z,1007.35
2018-04-26T07:23:27.642Z,1007.37
2018-04-26T07:24:27.648Z,1007.34
2018-04-26T07:25:27.657Z,1007.32
2018-04-26T07:26:27.667Z,1007.39
2018-04-26T07:27:27.671Z,1007.49
2018-04-26T07:28:27.677Z,1007.36
2018-04-26T07:29:27.702Z,1007.36
2018-04-26T07:30:27.701Z,1007.33
2018-04-26T07:31:27.708Z,1007.40
2018-04-26T07:32:27.714Z,1007.37
2018-04-26T07:33:27.730Z,1007.37
2018-04-26T07:34:27.738Z,1007.39
2018-04-26T07:35:27.740Z,1007.36
2018-04-26T07:36:27.754Z,1007.42
2018-04-26T07:37:27.757Z,1007.45
2018-04-26T07:38:27.772Z,1007.39
2018-04-26T07:39:27.775Z,1007.36
2018-04-26T07:40:27.787Z,1007.52
2018-04-26T07:41:27.805Z,1007.44
2018-04-26T07:42:27.801Z,1007.48
2018-04-26T07:43:27.867Z,1007.57
2018-04-26T07:44:27.819Z,1007.49
2018-04-26T07:45:27.828Z,1007.48
2018-04-26T07:46:27.847Z,1007.47
2018-04-26T07:47:27.846Z,1007.60
2018-04-26T07:48:27.850Z,1007.55
2018-04-26T07:49:27.868Z,1007.58
2018-04-26T07:50:27.895Z,1007.61
2018-04-26T07:51:27.883Z,1007.49
2018-04-26T07:52:27.887Z,1007.53
2018-04-26T07:53:27.894Z,1007.47
2018-04-26T07:54:27.901Z,1007.41
2018-04-26T07:55:27.910Z,1007.46
2018-04-26T07:56:27.939Z,1007.50
2018-04-26T07:57:27.929Z,1007.46
2018-04-26T07:58:27.936Z,1007.47
2018-04-26T07:59:27.951Z,1007.45
2018-04-26T08:00:27.958Z,1007.49
2018-04-26T08:01:28.037Z,1007.46
2018-04-26T08:02:27.976Z,1007.52
2018-04-26T08:03:27.980Z,1007.52
2018-04-26T08:04:27.991Z,1007.55
2018-04-26T08:05:28.006Z,1007.57
2018-04-26T08:06:28.019Z,1007.51
2018-04-26T08:07:28.013Z,1007.61
2018-04-26T08:08:28.019Z,1007.59
2018-04-26T08:09:28.035Z,1007.61
2018-04-26T08:10:28.054Z,1007.62
2018-04-26T08:11:28.088Z,1007.66
2018-04-26T08:12:28.055Z,1007.75
2018-04-26T08:13:28.080Z,1007.70
2018-04-26T08:14:28.091Z,1007.62
2018-04-26T08:15:28.081Z,1007.58
2018-04-26T08:16:28.105Z,1007.68
2018-04-26T08:17:28.108Z,1007.69
2018-04-26T08:18:28.111Z,1007.67
2018-04-26T08:19:28.147Z,1007.64
2018-04-26T08:20:28.135Z,1007.68
2018-04-26T08:21:28.155Z,1007.66
2018-04-26T08:22:28.177Z,1007.68
2018-04-26T08:23:28.176Z,1007.56
2018-04-26T08:24:28.170Z,1007.81
2018-04-26T08:25:28.187Z,1007.61
2018-04-26T08:26:28.204Z,1007.64
2018-04-26T08:27:28.209Z,1007.67
2018-04-26T08:28:28.205Z,1007.73
2018-04-26T08:29:28.248Z,1007.73
2018-04-26T08:30:28.261Z,1007.61
2018-04-26T08:31:28.220Z,1007.66
2018-04-26T08:32:28.224Z,1007.96
2018-04-26T08:33:28.246Z,1007.66
2018-04-26T08:34:28.264Z,1007.60
2018-04-26T08:35:28.251Z,1007.72
2018-04-26T08:36:28.262Z,1007.68
2018-04-26T08:37:28.274Z,1007.69
2018-04-26T08:38:28.282Z,1007.67
2018-04-26T08:39:28.290Z,1007.75
2018-04-26T08:40:28.292Z,1007.72
2018-04-26T08:41:28.301Z,1007.67
2018-04-26T08:42:28.311Z,1007.74
2018-04-26T08:43:28.321Z,1007.68
2018-04-26T08:44:28.322Z,1007.69
2018-04-26T08:45:28.343Z,1007.62
2018-04-26T08:46:28.349Z,1007.66
2018-04-26T08:47:28.353Z,1007.87
2018-04-26T08:48:28.361Z,1007.70
2018-04-26T08:49:28.364Z,1007.70
2018-04-26T08:50:28.376Z,1007.68
2018-04-26T08:51:28.383Z,1007.71
2018-04-26T08:52:28.445Z,1007.62
2018-04-26T08:53:28.408Z,1007.84
2018-04-26T08:54:28.407Z,1007.67
2018-04-26T08:55:28.415Z,1007.62
2018-04-26T08:56:28.431Z,1007.63
2018-04-26T08:57:28.435Z,1007.64
2018-04-26T08:58:28.449Z,1007.64
2018-04-26T08:59:28.452Z,1007.96
2018-04-26T09:00:28.468Z,1007.99
2018-04-26T09:01:28.484Z,1007.73
2018-04-26T09:02:28.473Z,1007.73
2018-04-26T09:03:28.483Z,1007.68
2018-04-26T09:04:28.495Z,1007.77
2018-04-26T09:05:28.506Z,1007.69
2018-04-26T09:06:28.513Z,1007.64
2018-04-26T09:07:28.522Z,1007.70
2018-04-26T09:08:28.523Z,1007.79
2018-04-26T09:09:28.547Z,1007.71
2018-04-26T09:10:28.538Z,1007.66
2018-04-26T09:11:28.550Z,1007.71
2018-04-26T09:12:28.553Z,1007.71
2018-04-26T09:13:28.564Z,1007.76
2018-04-26T09:14:28.575Z,1007.72
2018-04-26T09:15:28.584Z,1007.66
2018-04-26T09:16:28.589Z,1007.66
2018-04-26T09:17:28.597Z,1007.65
2018-04-26T09:18:28.606Z,1007.63
2018-04-26T09:19:28.619Z,1007.70
2018-04-26T09:20:28.623Z,1007.62
2018-04-26T09:21:28.632Z,1007.76
2018-04-26T09:22:28.646Z,1007.69
2018-04-26T09:23:28.649Z,1007.67
2018-04-26T09:24:28.667Z,1007.73
2018-04-26T09:25:28.666Z,1007.74
2018-04-26T09:26:28.679Z,1007.78
2018-04-26T09:27:28.698Z,1007.69
2018-04-26T09:28:28.703Z,1007.83
2018-04-26T09:29:28.701Z,1007.69
2018-04-26T09:30:28.739Z,1007.78
2018-04-26T09:31:28.722Z,1007.72
2018-04-26T09:32:28.747Z,1007.75
2018-04-26T09:33:28.749Z,1007.68
2018-04-26T09:34:28.749Z,1007.71
2018-04-26T09:35:28.768Z,1007.78
2018-04-26T09:36:28.764Z,1007.67
2018-04-26T09:37:28.775Z,1007.89
2018-04-26T09:38:28.786Z,1007.78
2018-04-26T09:39:28.795Z,1007.80
2018-04-26T09:40:28.809Z,1007.64
2018-04-26T09:41:28.809Z,1007.66
2018-04-26T09:42:28.822Z,1007.67
2018-04-26T09:43:28.829Z,1007.64
2018-04-26T09:44:28.838Z,1007.67
2018-04-26T09:45:28.846Z,1007.65
2018-04-26T09:46:28.855Z,1007.72
2018-04-26T09:47:28.866Z,1007.72
2018-04-26T09:48:28.874Z,1007.64
2018-04-26T09:49:28.891Z,1007.71
2018-04-26T09:50:28.897Z,1007.70
2018-04-26T09:51:28.900Z,1007.71
2018-04-26T09:52:28.912Z,1007.69
2018-04-26T09:53:28.923Z,1007.62
2018-04-26T09:54:28.931Z,1007.70
2018-04-26T09:55:29.024Z,1007.75
2018-04-26T09:56:28.947Z,1007.68
2018-04-26T09:57:28.956Z,1007.67
2018-04-26T09:58:28.975Z,1007.78
2018-04-26T09:59:28.976Z,1007.78
2018-04-26T10:00:28.987Z,1007.64
2018-04-26T10:01:29.012Z,1007.79
2018-04-26T10:02:29.006Z,1007.77
2018-04-26T10:03:29.013Z,1007.74
2018-04-26T10:04:29.027Z,1007.78
2018-04-26T10:05:29.038Z,1007.75
2018-04-26T10:06:29.049Z,1007.70
2018-04-26T10:07:29.052Z,1007.73
2018-04-26T10:08:29.059Z,1007.74
2018-04-26T10:09:29.072Z,1007.74
2018-04-26T10:10:29.085Z,1007.94
2018-04-26T10:11:29.092Z,1007.68
2018-04-26T10:12:29.097Z,1007.66
2018-04-26T10:13:29.110Z,1007.63
2018-04-26T10:14:29.119Z,1007.63
2018-04-26T10:15:29.123Z,1007.67
2018-04-26T10:16:29.130Z,1007.60
2018-04-26T10:17:29.154Z,1007.68
2018-04-26T10:18:29.163Z,1007.66
2018-04-26T10:19:29.164Z,1007.61
2018-04-26T10:20:29.170Z,1007.57
2018-04-26T10:21:29.186Z,1007.66
2018-04-26T10:22:29.198Z,1007.63
2018-04-26T10:23:29.199Z,1007.69
2018-04-26T10:24:29.211Z,1007.65
2018-04-26T10:25:29.225Z,1007.59
2018-04-26T10:26:29.234Z,1007.58
2018-04-26T10:27:29.247Z,1007.58
2018-04-26T10:28:29.244Z,1007.60
2018-04-26T10:29:29.269Z,1007.59
2018-04-26T10:30:29.262Z,1007.60
2018-04-26T10:31:29.276Z,1007.58
2018-04-26T10:32:29.289Z,1007.67
2018-04-26T10:33:29.302Z,1007.54
2018-04-26T10:34:29.302Z,1007.60
2018-04-26T10:35:29.369Z,1007.54
2018-04-26T10:36:29.325Z,1007.52
2018-04-26T10:37:29.333Z,1007.61
2018-04-26T10:38:29.347Z,1007.54
2018-04-26T10:39:29.350Z,1007.48
2018-04-26T10:40:29.372Z,1007.58
2018-04-26T10:41:29.374Z,1007.66
2018-04-26T10:42:29.407Z,1007.58
2018-04-26T10:43:29.393Z,1007.49
2018-04-26T10:44:29.408Z,1007.65
2018-04-26T10:45:29.421Z,1007.65
2018-04-26T10:46:29.427Z,1007.58
2018-04-26T10:47:29.434Z,1007.53
2018-04-26T10:48:29.454Z,1007.53
2018-04-26T10:49:29.455Z,1007.59
2018-04-26T10:50:29.469Z,1007.56
2018-04-26T10:51:29.488Z,1007.54
2018-04-26T10:52:29.492Z,1007.58
2018-04-26T10:53:29.497Z,1007.53
2018-04-26T10:54:29.515Z,1007.56
2018-04-26T10:55:29.525Z,1007.51
2018-04-26T10:56:29.535Z,1007.60
2018-04-26T10:57:29.541Z,1007.59
2018-04-26T10:58:29.554Z,1007.55
2018-04-26T10:59:29.566Z,1007.45
2018-04-26T11:00:29.582Z,1007.52
2018-04-26T11:01:29.586Z,1007.55
2018-04-26T11:02:29.594Z,1007.48
2018-04-26T11:03:29.608Z,1007.62
2018-04-26T11:04:29.643Z,1007.55
2018-04-26T11:05:29.639Z,1007.49
2018-04-26T11:06:29.642Z,1007.61
2018-04-26T11:07:29.661Z,1007.59
2018-04-26T11:08:29.665Z,1007.66
2018-04-26T11:09:29.679Z,1008.01
2018-04-26T11:10:29.685Z,1007.76
2018-04-26T11:11:29.698Z,1008.60
2018-04-26T11:12:29.731Z,1008.14
2018-04-26T11:13:29.726Z,1007.93
2018-04-26T11:14:29.735Z,1007.79
2018-04-26T11:15:29.790Z,1008.40
2018-04-26T11:16:29.760Z,1007.82
2018-04-26T11:17:29.771Z,1008.85
2018-04-26T11:18:29.781Z,1007.66
2018-04-26T11:19:29.854Z,1007.66
2018-04-26T11:20:29.807Z,1007.68
2018-04-26T11:21:29.820Z,1008.86
2018-04-26T11:22:29.827Z,1007.72
2018-04-26T11:23:29.842Z,1007.62
2018-04-26T11:24:29.931Z,1007.66
2018-04-26T11:25:29.870Z,1007.67
2018-04-26T11:26:29.883Z,1007.64
2018-04-26T11:27:29.899Z,1007.60
2018-04-26T11:28:29.914Z,1008.92
2018-04-26T11:29:29.982Z,1007.52
2018-04-26T11:30:29.934Z,1007.54
2018-04-26T11:31:29.945Z,1007.48
2018-04-26T11:32:29.961Z,1008.87
2018-04-26T11:33:29.978Z,1009.01
2018-04-26T11:34:29.993Z,1008.96
2018-04-26T11:35:30.004Z,1009.09
2018-04-26T11:36:30.010Z,1009.02
2018-04-26T11:37:30.024Z,1009.05
2018-04-26T11:38:30.048Z,1009.04
2018-04-26T11:39:30.068Z,1008.74
2018-04-26T11:40:30.073Z,1008.55
2018-04-26T11:41:30.097Z,1008.73
2018-04-26T11:42:30.105Z,1008.72
2018-04-26T11:43:30.123Z,1008.55
2018-04-26T11:44:30.150Z,1008.52
2018-04-26T11:45:30.166Z,1008.61
2018-04-26T11:46:30.181Z,1008.51
2018-04-26T11:47:30.202Z,1008.52
2018-04-26T11:48:30.222Z,1008.41
2018-04-26T11:49:30.239Z,1008.44
2018-04-26T11:50:30.271Z,1007.65
2018-04-26T11:51:30.291Z,1008.38
2018-04-26T11:52:30.386Z,1008.01
2018-04-26T11:53:30.321Z,1008.22
2018-04-26T11:54:30.355Z,1008.19
2018-04-26T11:55:30.374Z,1008.19
2018-04-26T11:56:30.392Z,1007.45
2018-04-26T11:57:30.417Z,1007.63
2018-04-26T11:58:30.433Z,1007.44
2018-04-26T11:59:30.452Z,1007.47
2018-04-26T12:00:30.482Z,1007.62
2018-04-26T12:01:30.496Z,1008.32
2018-04-26T12:02:30.539Z,1007.69
2018-04-26T12:03:30.539Z,1007.78
2018-04-26T12:04:30.557Z,1007.54
2018-04-26T12:05:30.577Z,1008.10